Dati Storici

Data ora Umidita' aria (%) Temperatura aria (°C) Rad globale (W/m²) Gonioanemometro (°) Tacoanemometro (m/s) Pioggia (mm)
08-06-2020 19:30 97.7 % 17.675 -56.972 1.05 0 0
08-06-2020 19:20 97.7 % 17.93 -80.966 4.05 0 0
08-06-2020 19:10 97.7 % 17.998 -80.239 2.52 0 0
08-06-2020 19:00 97.7 % 18.099 -52.236 1.124 0 0
08-06-2020 18:50 97.7 % 18.095 -79.028 1.477 0 0
08-06-2020 18:40 97.7 % 18.022 -78.374 3.003 0 0
08-06-2020 18:30 97.7 % 18.281 -76.84 2.202 0 0
08-06-2020 18:20 95.7 % 18.722 -79.973 1.713 0 0
08-06-2020 18:10 90.8 % 19.568 -74.716 0.124 0 0
08-06-2020 18:00 90 % 19.581 -73.49 0.63 0 0
08-06-2020 17:50 91.3 % 19.687 -68.714 0.588 0 0
08-06-2020 17:40 90.6 % 19.562 -72.668 0.93 0 0
08-06-2020 17:30 92 % 19.634 -73.617 1.897 0 0
08-06-2020 17:20 93.5 % 19.711 -38.103 0.766 0 0
08-06-2020 17:10 94.1 % 19.676 -60.701 0.788 0 0
08-06-2020 17:00 93.2 % 19.606 -60.492 1.13 0 0
08-06-2020 16:50 95.6 % 19.733 -62.485 1.135 0 0
08-06-2020 16:40 96.5 % 19.745 -78.567 1.185 0 0
08-06-2020 16:30 94.9 % 19.438 -67.25 2.027 0 0
08-06-2020 16:20 97.6 % 19.32 -67.09 1.036 0 0

I dati sono presentati in modo automatico a scopo informativo. In seguito a verifica i dati possono subire modifiche o essere invalidati e non riportati negli archivi definitivi.